Time;durP1;ratioP1;P1;durP2;ratioP2;P2;SDS_P1;SDS_P2;PMS_P1;PMS_P2;Temp;Humidity;BMP_temperature;BMP_pressure;BME280_temperature;BME280_humidity;BME280_pressure;Samples;Min_cycle;Max_cycle;Signal;HPM_P1;HPM_P2
2023/12/27 00:00:41;;;;;;;1999.90;999.90;;;5.80;99.90;;;;;;5066961;28;20845;-72
2023/12/27 00:03:08;;;;;;;1999.90;999.90;;;5.80;99.90;;;;;;5072882;28;20405;-71
2023/12/27 00:05:34;;;;;;;1999.90;999.90;;;5.80;99.90;;;;;;5069294;28;20983;-71
2023/12/27 00:08:02;;;;;;;1999.90;999.90;;;5.80;99.90;;;;;;5070239;28;20415;-70
2023/12/27 00:10:29;;;;;;;1999.90;999.90;;;5.80;99.90;;;;;;5064132;28;20411;-69
2023/12/27 00:12:56;;;;;;;1999.90;999.90;;;5.70;99.90;;;;;;5070398;28;20468;-71
2023/12/27 00:15:22;;;;;;;1999.90;999.90;;;5.60;99.90;;;;;;5070358;28;20963;-71
2023/12/27 00:17:49;;;;;;;1999.90;999.90;;;5.70;99.90;;;;;;5065312;28;20437;-71
2023/12/27 00:20:15;;;;;;;1999.90;999.90;;;5.70;99.90;;;;;;5066698;28;20411;-71
2023/12/27 00:22:42;;;;;;;1999.90;999.90;;;5.80;99.90;;;;;;5073540;28;20935;-72
2023/12/27 00:25:10;;;;;;;1999.90;999.90;;;5.70;99.90;;;;;;5087693;28;20437;-71
2023/12/27 00:27:37;;;;;;;1999.90;999.90;;;5.70;99.90;;;;;;5072918;28;20412;-71
2023/12/27 00:30:04;;;;;;;1999.90;999.90;;;5.70;99.90;;;;;;5067455;28;20409;-72
2023/12/27 00:32:31;;;;;;;1999.90;999.90;;;5.60;99.90;;;;;;5077759;28;20490;-71
2023/12/27 00:34:57;;;;;;;1999.90;999.90;;;5.60;99.90;;;;;;5070552;28;20484;-71
2023/12/27 00:37:24;;;;;;;1999.90;999.90;;;5.60;99.90;;;;;;5079930;28;20463;-71
2023/12/27 00:39:51;;;;;;;1999.90;999.90;;;5.50;99.90;;;;;;5068093;28;20485;-71
2023/12/27 00:42:19;;;;;;;1999.90;999.90;;;5.60;99.90;;;;;;5066017;28;20821;-73
2023/12/27 00:44:46;;;;;;;1999.90;999.90;;;5.60;99.90;;;;;;5072486;28;20797;-71
2023/12/27 00:47:13;;;;;;;1999.90;999.90;;;5.60;99.90;;;;;;5071957;28;20433;-71
2023/12/27 00:49:39;;;;;;;1999.90;999.90;;;5.50;99.90;;;;;;5068248;28;20945;-70
2023/12/27 00:52:06;;;;;;;1999.90;999.90;;;5.40;99.90;;;;;;5067158;28;20431;-72
2023/12/27 00:54:33;;;;;;;1999.90;999.90;;;5.50;99.90;;;;;;5059862;28;20463;-71
2023/12/27 00:56:59;;;;;;;1999.90;999.90;;;5.50;99.90;;;;;;5067459;28;20415;-71
2023/12/27 00:59:27;;;;;;;1999.90;999.90;;;5.50;99.90;;;;;;5079277;28;20823;-72
2023/12/27 01:01:54;;;;;;;1999.90;999.90;;;5.50;99.90;;;;;;5083133;28;20472;-71
2023/12/27 01:04:21;;;;;;;1999.90;999.90;;;5.50;99.90;;;;;;5083104;28;20423;-71
2023/12/27 01:06:47;;;;;;;1999.90;999.90;;;5.40;99.90;;;;;;5063819;28;20960;-71
2023/12/27 01:09:14;;;;;;;1999.90;999.90;;;5.40;99.90;;;;;;5070425;28;20411;-70
2023/12/27 01:11:40;;;;;;;1999.90;999.90;;;5.40;99.90;;;;;;5069058;28;20468;-71
2023/12/27 01:14:07;;;;;;;1999.90;999.90;;;5.40;99.90;;;;;;5083597;28;20499;-71
2023/12/27 01:16:35;;;;;;;1999.90;999.90;;;5.40;99.90;;;;;;5071606;28;20978;-69
2023/12/27 01:19:02;;;;;;;1999.90;999.90;;;5.30;99.90;;;;;;5070550;28;20489;-71
2023/12/27 01:21:28;;;;;;;1999.90;999.90;;;5.20;99.90;;;;;;5074969;28;20469;-71
2023/12/27 01:23:55;;;;;;;1999.90;999.90;;;5.20;99.90;;;;;;5076563;28;20412;-71
2023/12/27 01:26:22;;;;;;;1999.90;999.90;;;5.20;99.90;;;;;;5076292;28;20414;-71
2023/12/27 01:28:48;;;;;;;1999.90;999.90;;;5.30;99.90;;;;;;5073785;28;20439;-71
2023/12/27 01:31:15;;;;;;;1999.90;999.90;;;5.20;99.90;;;;;;5075357;28;20465;-71
2023/12/27 01:33:43;;;;;;;1999.90;999.90;;;5.30;99.90;;;;;;5074196;28;20828;-71
2023/12/27 01:36:10;;;;;;;1999.90;999.90;;;5.30;99.90;;;;;;5073444;28;20402;-67
2023/12/27 01:38:37;;;;;;;1999.90;999.90;;;5.30;99.90;;;;;;5077399;28;20402;-71
2023/12/27 01:41:04;;;;;;;1999.90;999.90;;;5.20;99.90;;;;;;5079694;28;20848;-71
2023/12/27 01:43:30;;;;;;;1999.90;999.90;;;5.10;99.90;;;;;;5078391;28;20465;-70
2023/12/27 01:45:57;;;;;;;1999.90;999.90;;;5.10;99.90;;;;;;5074013;28;20469;-71
2023/12/27 01:48:25;;;;;;;1999.90;999.90;;;5.10;99.90;;;;;;5074139;28;20832;-70
2023/12/27 01:50:55;;;;;;;1999.90;999.90;;;5.10;99.90;;;;;;5076588;28;20438;-71
2023/12/27 01:53:23;;;;;;;1999.90;999.90;;;5.00;99.90;;;;;;5078557;28;20490;-71
2023/12/27 01:55:50;;;;;;;1999.90;999.90;;;5.10;99.90;;;;;;5074823;28;20473;-72
2023/12/27 01:58:17;;;;;;;1999.90;999.90;;;5.10;99.90;;;;;;5073091;28;20476;-69
2023/12/27 02:00:45;;;;;;;1999.90;999.90;;;5.10;99.90;;;;;;5073416;28;20416;-71
2023/12/27 02:03:12;;;;;;;1999.90;999.90;;;5.00;99.90;;;;;;5073019;28;20403;-71
2023/12/27 02:05:40;;;;;;;1999.90;999.90;;;4.90;99.90;;;;;;5073242;28;20431;-71
2023/12/27 02:08:11;;;;;;;1999.90;999.90;;;4.80;99.90;;;;;;5070816;28;20428;-70
2023/12/27 02:10:38;;;;;;;1999.90;999.90;;;4.80;99.90;;;;;;5069204;28;20480;-71
2023/12/27 02:13:05;;;;;;;1999.90;999.90;;;4.70;99.90;;;;;;5073848;28;20419;-67
2023/12/27 02:15:32;;;;;;;1999.90;999.90;;;4.70;99.90;;;;;;5069548;28;20967;-66
2023/12/27 02:18:00;;;;;;;1999.90;999.90;;;4.70;99.90;;;;;;5077769;28;20418;-69
2023/12/27 02:20:27;;;;;;;1999.90;999.90;;;4.70;99.90;;;;;;5079359;28;20430;-68
2023/12/27 02:22:55;;;;;;;1999.90;999.90;;;4.80;99.90;;;;;;5082339;28;20410;-69
2023/12/27 02:25:23;;;;;;;1999.90;999.90;;;4.70;99.90;;;;;;5072738;28;20416;-69
2023/12/27 02:27:50;;;;;;;1999.90;999.90;;;4.80;99.90;;;;;;5073458;28;20412;-69
2023/12/27 02:30:18;;;;;;;1999.90;999.90;;;4.80;99.90;;;;;;5074467;28;20410;-69
2023/12/27 02:32:45;;;;;;;1999.90;999.90;;;4.70;99.90;;;;;;5077605;28;20520;-68
2023/12/27 02:35:12;;;;;;;1999.90;999.90;;;4.70;99.90;;;;;;5075290;28;20416;-69
2023/12/27 02:37:39;;;;;;;1999.90;999.90;;;4.80;99.90;;;;;;5070180;28;20473;-68
2023/12/27 02:40:07;;;;;;;1999.90;999.90;;;4.80;99.90;;;;;;5074183;28;20422;-67
2023/12/27 02:42:36;;;;;;;1999.90;999.90;;;4.80;99.90;;;;;;5071881;28;20419;-68
2023/12/27 02:45:03;;;;;;;1999.90;999.90;;;4.70;99.90;;;;;;5080300;28;20412;-68
2023/12/27 02:47:29;;;;;;;1999.90;999.90;;;4.80;99.90;;;;;;5077311;28;20419;-68
2023/12/27 02:49:56;;;;;;;1999.90;999.90;;;4.80;99.90;;;;;;5079216;28;20410;-68
2023/12/27 02:52:23;;;;;;;1999.90;999.90;;;4.70;99.90;;;;;;5070127;28;20603;-68
2023/12/27 02:54:49;;;;;;;1999.90;999.90;;;4.70;99.90;;;;;;5070844;28;20462;-68
2023/12/27 02:57:16;;;;;;;1999.90;999.90;;;4.60;99.90;;;;;;5075044;28;20820;-69
2023/12/27 02:59:44;;;;;;;1999.90;999.90;;;4.60;99.90;;;;;;5077388;28;20410;-69
2023/12/27 03:02:11;;;;;;;1999.90;999.90;;;4.50;99.90;;;;;;5064633;28;20936;-69
2023/12/27 03:04:37;;;;;;;1999.90;999.90;;;4.60;99.90;;;;;;5070604;28;20462;-68
2023/12/27 03:07:04;;;;;;;1999.90;999.90;;;4.50;99.90;;;;;;5074999;28;20419;-69
2023/12/27 03:09:31;;;;;;;1999.90;999.90;;;4.50;99.90;;;;;;5074224;28;20472;-68
2023/12/27 03:11:58;;;;;;;1999.90;999.90;;;4.50;99.90;;;;;;5075393;28;20407;-69
2023/12/27 03:14:26;;;;;;;1999.90;999.90;;;4.60;99.90;;;;;;5073494;28;20908;-68
2023/12/27 03:16:54;;;;;;;1999.90;999.90;;;4.60;99.90;;;;;;5074568;28;20529;-68
2023/12/27 03:19:21;;;;;;;1999.90;999.90;;;4.40;99.90;;;;;;5071672;28;20431;-68
2023/12/27 03:21:48;;;;;;;1999.90;999.90;;;4.30;99.90;;;;;;5073252;28;20505;-68
2023/12/27 03:24:14;;;;;;;1999.90;999.90;;;4.20;99.90;;;;;;5075628;28;20453;-68
2023/12/27 03:26:41;;;;;;;1999.90;999.90;;;4.30;99.90;;;;;;5073723;28;20431;-68
2023/12/27 03:29:07;;;;;;;1999.90;999.90;;;4.20;99.90;;;;;;5069618;28;20913;-70
2023/12/27 03:31:34;;;;;;;1999.90;999.90;;;4.00;99.90;;;;;;5067528;28;20469;-68
2023/12/27 03:34:02;;;;;;;1999.90;999.90;;;4.00;99.90;;;;;;5072116;28;20428;-71
2023/12/27 03:36:29;;;;;;;1999.90;999.90;;;3.90;99.90;;;;;;5070780;28;20407;-70
2023/12/27 03:38:55;;;;;;;1999.90;999.90;;;3.70;99.90;;;;;;5074833;28;21000;-68
2023/12/27 03:41:22;;;;;;;1999.90;999.90;;;3.70;99.90;;;;;;5079454;28;20411;-66
2023/12/27 03:43:49;;;;;;;1999.90;999.90;;;3.70;99.90;;;;;;5070924;28;20407;-68
2023/12/27 03:46:18;;;;;;;1999.90;999.90;;;3.80;99.90;;;;;;5074457;28;20406;-71
2023/12/27 03:48:44;;;;;;;1999.90;999.90;;;3.80;99.90;;;;;;5066312;28;20865;-70
2023/12/27 03:51:12;;;;;;;1999.90;999.90;;;3.80;99.90;;;;;;5067492;28;20503;-70
2023/12/27 03:53:39;;;;;;;1999.90;999.90;;;3.90;99.90;;;;;;5076862;28;20485;-70
2023/12/27 03:56:09;;;;;;;1999.90;999.90;;;3.90;99.90;;;;;;5071970;28;20919;-68
2023/12/27 03:58:36;;;;;;;1999.90;999.90;;;3.40;99.90;;;;;;5073426;28;20419;-69
2023/12/27 04:01:03;;;;;;;1999.90;999.90;;;3.70;99.90;;;;;;5071425;28;20439;-68
2023/12/27 04:03:29;;;;;;;1999.90;999.90;;;3.80;99.90;;;;;;5075857;28;20409;-68
2023/12/27 04:05:55;;;;;;;1999.90;999.90;;;3.60;99.90;;;;;;5077106;28;20408;-68
2023/12/27 04:08:23;;;;;;;1999.90;999.90;;;3.50;99.90;;;;;;5080342;28;20834;-66
2023/12/27 04:10:50;;;;;;;1999.90;999.90;;;3.50;99.90;;;;;;5067500;28;20429;-68
2023/12/27 04:13:17;;;;;;;1999.90;999.90;;;3.50;99.90;;;;;;5067801;28;20415;-68
2023/12/27 04:15:43;;;;;;;1999.90;999.90;;;3.60;99.90;;;;;;5073804;28;20494;-69
2023/12/27 04:18:11;;;;;;;1999.90;999.90;;;3.60;99.90;;;;;;5078118;28;20798;-68
2023/12/27 04:20:38;;;;;;;1999.90;999.90;;;3.50;99.90;;;;;;5074865;28;20526;-68
2023/12/27 04:23:05;;;;;;;1999.90;999.90;;;3.50;99.90;;;;;;5061917;28;20463;-68
2023/12/27 04:25:33;;;;;;;1999.90;999.90;;;3.50;99.90;;;;;;5072044;28;20459;-69
2023/12/27 04:27:59;;;;;;;1999.90;999.90;;;3.40;99.90;;;;;;5073025;28;21098;-68
2023/12/27 04:30:26;;;;;;;1999.90;999.90;;;3.30;99.90;;;;;;5070931;28;20479;-68
2023/12/27 04:32:52;;;;;;;1999.90;999.90;;;3.30;99.90;;;;;;5076628;28;20463;-69
2023/12/27 04:35:19;;;;;;;1999.90;999.90;;;3.30;99.90;;;;;;5078226;28;20828;-68
2023/12/27 04:37:46;;;;;;;1999.90;999.90;;;3.40;99.90;;;;;;5070920;28;20538;-68
2023/12/27 04:40:12;;;;;;;1999.90;999.90;;;3.40;99.90;;;;;;5074776;28;21005;-67
2023/12/27 04:42:40;;;;;;;1999.90;999.90;;;3.40;99.90;;;;;;5073037;28;20959;-69
2023/12/27 04:45:08;;;;;;;1999.90;999.90;;;3.40;99.90;;;;;;5078785;28;20409;-68
2023/12/27 04:47:35;;;;;;;1999.90;999.90;;;3.40;99.90;;;;;;5074336;28;20407;-69
2023/12/27 04:50:01;;;;;;;1999.90;999.90;;;3.30;99.90;;;;;;5072349;28;20439;-68
2023/12/27 04:52:28;;;;;;;1999.90;999.90;;;3.30;99.90;;;;;;5074864;28;20483;-67
2023/12/27 04:54:55;;;;;;;1999.90;999.90;;;3.30;99.90;;;;;;5079661;28;20427;-68
2023/12/27 04:57:21;;;;;;;1999.90;999.90;;;3.30;99.90;;;;;;5082140;28;20405;-68
2023/12/27 04:59:49;;;;;;;1999.90;999.90;;;3.40;99.90;;;;;;5072189;28;20458;-67
2023/12/27 05:02:16;;;;;;;1999.90;999.90;;;3.40;99.90;;;;;;5071019;28;20409;-68
2023/12/27 05:04:42;;;;;;;1999.90;999.90;;;3.30;99.90;;;;;;5077941;28;20415;-68
2023/12/27 05:07:10;;;;;;;1999.90;999.90;;;3.30;99.90;;;;;;5078498;28;20465;-67
2023/12/27 05:09:36;;;;;;;1999.90;999.90;;;3.20;99.90;;;;;;5076959;28;20978;-68
2023/12/27 05:12:03;;;;;;;1999.90;999.90;;;3.20;99.90;;;;;;5074026;28;20465;-69
2023/12/27 05:14:30;;;;;;;1999.90;999.90;;;3.10;99.90;;;;;;5070063;28;20450;-69
2023/12/27 05:16:58;;;;;;;1999.90;999.90;;;3.20;99.90;;;;;;5078995;28;20411;-68
2023/12/27 05:19:25;;;;;;;1999.90;999.90;;;3.10;99.90;;;;;;5076247;28;20480;-68
2023/12/27 05:21:52;;;;;;;1999.90;999.90;;;3.10;99.90;;;;;;5081228;28;20416;-68
2023/12/27 05:24:18;;;;;;;1999.90;999.90;;;3.20;99.90;;;;;;5075792;28;20459;-68
2023/12/27 05:26:45;;;;;;;1999.90;999.90;;;3.30;99.90;;;;;;5077448;28;20419;-69
2023/12/27 05:29:12;;;;;;;1999.90;999.90;;;3.30;99.90;;;;;;5073180;28;20843;-68
2023/12/27 05:31:38;;;;;;;1999.90;999.90;;;3.30;99.90;;;;;;5080467;28;20425;-68
2023/12/27 05:34:07;;;;;;;1999.90;999.90;;;3.30;99.90;;;;;;5074628;28;20952;-68
2023/12/27 05:36:33;;;;;;;1999.90;999.90;;;3.40;99.90;;;;;;5069097;28;20508;-69
2023/12/27 05:39:00;;;;;;;1999.90;999.90;;;3.40;99.90;;;;;;5072297;28;20432;-69
2023/12/27 05:41:26;;;;;;;1999.90;999.90;;;3.30;99.90;;;;;;5078204;28;20513;-67
2023/12/27 05:43:54;;;;;;;1999.90;999.90;;;3.40;99.90;;;;;;5079603;28;20411;-68
2023/12/27 05:46:20;;;;;;;1999.90;999.90;;;3.40;99.90;;;;;;5073823;28;20423;-68
2023/12/27 05:48:47;;;;;;;1999.90;999.90;;;3.50;99.90;;;;;;5067011;28;20907;-68
2023/12/27 05:51:15;;;;;;;1999.90;999.90;;;3.50;99.90;;;;;;5077267;28;20832;-68
2023/12/27 05:53:42;;;;;;;1999.90;999.90;;;3.50;99.90;;;;;;5078673;28;20465;-68
2023/12/27 05:56:09;;;;;;;1999.90;999.90;;;3.50;99.90;;;;;;5081335;28;20521;-69
2023/12/27 05:58:36;;;;;;;1999.90;999.90;;;3.60;99.90;;;;;;5073177;28;20435;-68
2023/12/27 06:01:03;;;;;;;1999.90;999.90;;;3.70;99.90;;;;;;5071058;28;20461;-68
2023/12/27 06:03:30;;;;;;;1999.90;999.90;;;3.70;99.90;;;;;;5077085;28;20414;-68
2023/12/27 06:05:57;;;;;;;1999.90;999.90;;;3.70;99.90;;;;;;5079321;28;20447;-69
2023/12/27 06:08:25;;;;;;;1999.90;999.90;;;3.80;99.90;;;;;;5072028;28;20421;-68
2023/12/27 06:10:51;;;;;;;1999.90;999.90;;;3.90;99.90;;;;;;5072290;28;20469;-68
2023/12/27 06:13:19;;;;;;;1999.90;999.90;;;3.90;99.90;;;;;;5079308;28;20826;-67
2023/12/27 06:15:45;;;;;;;1999.90;999.90;;;4.00;99.90;;;;;;5079077;28;20427;-69
2023/12/27 06:18:12;;;;;;;1999.90;999.90;;;4.00;99.90;;;;;;5063487;28;21983;-68
2023/12/27 06:20:38;;;;;;;1999.90;999.90;;;4.10;99.90;;;;;;5071535;28;20458;-68
2023/12/27 06:23:05;;;;;;;1999.90;999.90;;;4.00;99.90;;;;;;5077192;28;20408;-68
2023/12/27 06:25:33;;;;;;;1999.90;999.90;;;4.00;99.90;;;;;;5079850;28;20410;-68
2023/12/27 06:28:00;;;;;;;1999.90;999.90;;;3.90;99.90;;;;;;5079619;28;20553;-69
2023/12/27 06:30:27;;;;;;;1999.90;999.90;;;3.90;99.90;;;;;;5064921;28;20465;-68
2023/12/27 06:32:54;;;;;;;1999.90;999.90;;;4.00;99.90;;;;;;5071991;28;20420;-67
2023/12/27 06:35:21;;;;;;;1999.90;999.90;;;4.00;99.90;;;;;;5078242;28;20423;-67
2023/12/27 06:37:48;;;;;;;1999.90;999.90;;;3.90;99.90;;;;;;5076054;28;20470;-67
2023/12/27 06:40:15;;;;;;;1999.90;999.90;;;3.80;99.90;;;;;;5075690;28;20480;-68
2023/12/27 06:42:43;;;;;;;1999.90;999.90;;;3.80;99.90;;;;;;5073081;28;20470;-68
2023/12/27 06:45:10;;;;;;;1999.90;999.90;;;3.80;99.90;;;;;;5074684;28;20485;-70
2023/12/27 06:47:37;;;;;;;1999.90;999.90;;;3.90;99.90;;;;;;5073713;28;20899;-69
2023/12/27 06:50:05;;;;;;;1999.90;999.90;;;4.00;99.90;;;;;;5077945;28;20509;-69
2023/12/27 06:52:31;;;;;;;1999.90;999.90;;;4.00;99.90;;;;;;5074232;28;20415;-70
2023/12/27 06:54:58;;;;;;;1999.90;999.90;;;4.00;99.90;;;;;;5073563;28;20924;-69
2023/12/27 06:57:25;;;;;;;1999.90;999.90;;;3.90;99.90;;;;;;5074064;28;20459;-70
2023/12/27 06:59:53;;;;;;;1999.90;999.90;;;3.90;99.90;;;;;;5080829;28;20805;-69
2023/12/27 07:02:20;;;;;;;1999.90;999.90;;;4.00;99.90;;;;;;5083284;28;20793;-69
2023/12/27 07:04:46;;;;;;;1999.90;999.90;;;4.00;99.90;;;;;;5079003;28;20402;-68
2023/12/27 07:07:13;;;;;;;1999.90;999.90;;;4.00;99.90;;;;;;5070927;28;20425;-69
2023/12/27 07:09:40;;;;;;;1999.90;999.90;;;3.90;99.90;;;;;;5069344;28;20489;-69
2023/12/27 07:12:09;;;;;;;1999.90;999.90;;;3.80;99.90;;;;;;5082975;28;20413;-69
2023/12/27 07:14:35;;;;;;;1999.90;999.90;;;3.70;99.90;;;;;;5085409;28;20427;-70
2023/12/27 07:17:04;;;;;;;1999.90;999.90;;;3.70;99.90;;;;;;5078031;28;20468;-69
2023/12/27 07:19:31;;;;;;;1999.90;999.90;;;3.80;99.90;;;;;;5070490;28;20495;-67
2023/12/27 07:21:57;;;;;;;1999.90;999.90;;;3.80;99.90;;;;;;5088556;28;20414;-69
2023/12/27 07:24:24;;;;;;;1999.90;999.90;;;3.70;99.90;;;;;;5088143;28;20453;-69
2023/12/27 07:26:51;;;;;;;1999.90;999.90;;;3.80;99.90;;;;;;5082188;28;20431;-69
2023/12/27 07:29:17;;;;;;;1999.90;999.90;;;3.80;99.90;;;;;;5074516;28;20897;-70
2023/12/27 07:31:44;;;;;;;1999.90;999.90;;;3.70;99.90;;;;;;5086830;28;20410;-69
2023/12/27 07:34:12;;;;;;;1999.90;999.90;;;3.60;99.90;;;;;;5088449;28;20459;-69
2023/12/27 07:36:38;;;;;;;1999.90;999.90;;;3.70;99.90;;;;;;5069761;28;20436;-70
2023/12/27 07:39:06;;;;;;;1999.90;999.90;;;3.70;99.90;;;;;;5072617;28;20469;-70
2023/12/27 07:41:33;;;;;;;1999.90;999.90;;;3.70;99.90;;;;;;5090646;28;20497;-70
2023/12/27 07:43:59;;;;;;;1999.90;999.90;;;3.70;99.90;;;;;;5089231;28;20434;-70
2023/12/27 07:46:26;;;;;;;1999.90;999.90;;;3.80;99.90;;;;;;5065914;28;20451;-71
2023/12/27 07:48:54;;;;;;;1999.90;999.90;;;3.90;99.90;;;;;;5079143;28;20485;-70
2023/12/27 07:51:22;;;;;;;1999.90;999.90;;;4.00;99.90;;;;;;5076588;28;20475;-70
2023/12/27 07:53:50;;;;;;;1999.90;999.90;;;4.20;99.90;;;;;;5080363;28;21064;-69
2023/12/27 07:56:18;;;;;;;1999.90;999.90;;;4.20;99.90;;;;;;5077222;28;20426;-69
2023/12/27 07:58:45;;;;;;;1999.90;999.90;;;4.10;99.90;;;;;;5069323;28;20439;-69
2023/12/27 08:01:11;;;;;;;1999.90;999.90;;;4.10;99.90;;;;;;5069896;28;20422;-70
2023/12/27 08:03:39;;;;;;;1999.90;999.90;;;4.00;99.90;;;;;;5077907;28;20904;-69
2023/12/27 08:06:07;;;;;;;1999.90;999.90;;;3.80;99.90;;;;;;5076727;28;20914;-69
2023/12/27 08:08:35;;;;;;;1999.90;999.90;;;4.10;99.90;;;;;;5066782;28;20428;-70
2023/12/27 08:11:03;;;;;;;1999.90;999.90;;;3.70;99.90;;;;;;5075694;28;20506;-70
2023/12/27 08:13:30;;;;;;;1999.90;999.90;;;3.80;99.90;;;;;;5076103;28;20418;-70
2023/12/27 08:15:57;;;;;;;1999.90;999.90;;;3.90;99.90;;;;;;5090075;28;20432;-70
2023/12/27 08:18:23;;;;;;;1999.90;999.90;;;4.00;99.90;;;;;;5076672;28;20430;-70
2023/12/27 08:20:50;;;;;;;1999.90;999.90;;;4.10;99.90;;;;;;5076364;28;20442;-69
2023/12/27 08:23:17;;;;;;;1999.90;999.90;;;4.30;99.90;;;;;;5088928;28;20460;-69
2023/12/27 08:25:45;;;;;;;1999.90;999.90;;;4.20;99.90;;;;;;5070281;28;20909;-68
2023/12/27 08:28:14;;;;;;;1999.90;999.90;;;4.30;99.90;;;;;;5085813;28;20417;-70
2023/12/27 08:30:40;;;;;;;1999.90;999.90;;;4.30;99.90;;;;;;5094193;28;20409;-70
2023/12/27 08:33:07;;;;;;;1999.90;999.90;;;4.30;99.90;;;;;;5088515;28;20463;-70
2023/12/27 08:35:34;;;;;;;1999.90;999.90;;;4.30;99.90;;;;;;5085480;28;20438;-68
2023/12/27 08:38:01;;;;;;;1999.90;999.90;;;4.30;99.90;;;;;;5087507;28;20827;-70
2023/12/27 08:40:28;;;;;;;1999.90;999.90;;;4.40;99.90;;;;;;5083317;28;20463;-69
2023/12/27 08:42:57;;;;;;;1999.90;999.90;;;4.40;99.90;;;;;;5080209;28;20488;-69
2023/12/27 08:45:24;;;;;;;1999.90;999.90;;;4.50;99.90;;;;;;5068919;28;20415;-70
2023/12/27 08:47:51;;;;;;;1999.90;999.90;;;4.60;99.90;;;;;;5090808;28;20482;-71
2023/12/27 08:50:17;;;;;;;1999.90;999.90;;;4.40;99.90;;;;;;5084856;28;20418;-68
2023/12/27 08:52:44;;;;;;;1999.90;999.90;;;4.30;99.90;;;;;;5077814;28;20487;-70
2023/12/27 08:55:12;;;;;;;1999.90;999.90;;;4.30;99.90;;;;;;5081322;28;20431;-69
2023/12/27 08:57:39;;;;;;;1999.90;999.90;;;4.50;99.90;;;;;;5080587;28;20429;-66
2023/12/27 09:00:10;;;;;;;1999.90;999.90;;;4.50;99.90;;;;;;5073182;28;20461;-69
2023/12/27 09:02:37;;;;;;;1999.90;999.90;;;4.50;99.90;;;;;;5080141;28;20414;-69
2023/12/27 09:05:04;;;;;;;1999.90;999.90;;;4.70;99.90;;;;;;5093434;28;20895;-68
2023/12/27 09:07:31;;;;;;;1999.90;999.90;;;4.80;99.90;;;;;;5082430;28;20490;-69
2023/12/27 09:09:58;;;;;;;1999.90;999.90;;;4.80;99.90;;;;;;5078429;28;20427;-69
2023/12/27 09:12:25;;;;;;;1999.90;999.90;;;4.90;99.90;;;;;;5078441;28;20410;-69
2023/12/27 09:14:52;;;;;;;1999.90;999.90;;;5.10;99.90;;;;;;5093317;28;20502;-69
2023/12/27 09:17:20;;;;;;;1999.90;999.90;;;5.30;99.90;;;;;;5093347;28;20422;-68
2023/12/27 09:19:46;;;;;;;1999.90;999.90;;;5.50;99.90;;;;;;5083069;28;20435;-67
2023/12/27 09:22:13;;;;;;;1999.90;999.90;;;5.50;99.90;;;;;;5070054;28;20406;-70
2023/12/27 09:24:41;;;;;;;1999.90;999.90;;;5.60;99.90;;;;;;5082106;28;20414;-67
2023/12/27 09:27:07;;;;;;;1999.90;999.90;;;5.60;99.90;;;;;;5083751;28;20425;-68
2023/12/27 09:29:34;;;;;;;1999.90;999.90;;;5.70;99.90;;;;;;5085972;28;20481;-68
2023/12/27 09:32:01;;;;;;;1999.90;999.90;;;5.70;99.90;;;;;;5076911;28;20428;-69
2023/12/27 09:34:29;;;;;;;1999.90;999.90;;;5.70;99.90;;;;;;5070283;28;20435;-69
2023/12/27 09:36:55;;;;;;;1999.90;999.90;;;5.70;99.90;;;;;;5071346;28;20477;-69
2023/12/27 09:39:22;;;;;;;1999.90;999.90;;;5.70;99.90;;;;;;5076090;28;20463;-68
2023/12/27 09:41:49;;;;;;;1999.90;999.90;;;5.80;99.90;;;;;;5068120;28;20432;-70
2023/12/27 09:44:19;;;;;;;1999.90;999.90;;;5.90;99.90;;;;;;5071509;28;20457;-69
2023/12/27 09:46:46;;;;;;;1999.90;999.90;;;6.00;99.90;;;;;;5072057;28;20453;-70
2023/12/27 09:49:13;;;;;;;1999.90;999.90;;;6.00;99.90;;;;;;5073683;28;20417;-71
2023/12/27 09:51:43;;;;;;;1999.90;999.90;;;6.00;99.90;;;;;;5068365;28;20431;-69
2023/12/27 09:54:10;;;;;;;1999.90;999.90;;;6.20;99.90;;;;;;5074578;28;20407;-68
2023/12/27 09:56:37;;;;;;;1999.90;999.90;;;6.30;99.90;;;;;;5071560;28;20787;-68
2023/12/27 09:59:07;;;;;;;1999.90;999.90;;;6.20;99.90;;;;;;5070087;28;20479;-67
2023/12/27 10:01:40;;;;;;;1999.90;999.90;;;6.40;99.90;;;;;;5075543;28;20414;-69
2023/12/27 10:04:12;;;;;;;1999.90;999.90;;;6.50;99.90;;;;;;5077384;28;20497;-69
2023/12/27 10:06:44;;;;;;;1999.90;999.90;;;6.60;99.90;;;;;;5071790;28;20415;-69
2023/12/27 10:09:11;;;;;;;1999.90;999.90;;;6.70;99.90;;;;;;5077023;28;20459;-69
2023/12/27 10:11:39;;;;;;;1999.90;999.90;;;6.70;99.90;;;;;;5069956;28;20432;-70
2023/12/27 10:14:06;;;;;;;1999.90;999.90;;;6.70;99.90;;;;;;5076929;28;20412;-70
2023/12/27 10:16:33;;;;;;;1999.90;999.90;;;6.60;99.90;;;;;;5078848;28;20427;-69
2023/12/27 10:19:00;;;;;;;1999.90;999.90;;;6.70;99.90;;;;;;5071978;28;20411;-69
2023/12/27 10:21:27;;;;;;;1999.90;999.90;;;6.70;99.90;;;;;;5071854;28;20465;-69
2023/12/27 10:23:55;;;;;;;1999.90;999.90;;;6.80;99.90;;;;;;5076092;28;20423;-69
2023/12/27 10:26:21;;;;;;;1999.90;999.90;;;6.80;99.90;;;;;;5075993;28;20429;-69
2023/12/27 10:28:48;;;;;;;1999.90;999.90;;;6.90;99.90;;;;;;5077683;28;20422;-69
2023/12/27 10:31:15;;;;;;;1999.90;999.90;;;6.90;99.90;;;;;;5075442;28;20453;-69
2023/12/27 10:33:42;;;;;;;1999.90;999.90;;;7.00;99.90;;;;;;5070947;28;20971;-69
2023/12/27 10:36:09;;;;;;;1999.90;999.90;;;7.00;99.90;;;;;;5074380;28;20490;-68
2023/12/27 10:38:36;;;;;;;1999.90;999.90;;;7.00;99.90;;;;;;5071876;28;20916;-68
2023/12/27 10:41:06;;;;;;;1999.90;999.90;;;7.00;99.90;;;;;;5069041;28;20443;-69
2023/12/27 10:43:33;;;;;;;1999.90;999.90;;;7.10;99.90;;;;;;5071627;28;20403;-69
2023/12/27 10:45:59;;;;;;;1999.90;999.90;;;7.00;99.90;;;;;;5089828;28;20632;-69
2023/12/27 10:48:29;;;;;;;1999.90;999.90;;;7.00;99.90;;;;;;5084909;28;20431;-67
2023/12/27 10:50:56;;;;;;;1999.90;999.90;;;6.90;99.90;;;;;;5077004;28;20474;-67
2023/12/27 10:53:29;;;;;;;1999.90;999.90;;;6.90;99.90;;;;;;5076199;28;20406;-70
2023/12/27 10:56:00;;;;;;;1999.90;999.90;;;7.00;99.90;;;;;;5091502;28;20478;-70
2023/12/27 10:58:31;;;;;;;1999.90;999.90;;;7.10;99.90;;;;;;5091195;28;20409;-70
2023/12/27 11:00:59;;;;;;;1999.90;999.90;;;7.20;99.90;;;;;;5070419;28;20439;-70
2023/12/27 11:03:29;;;;;;;1999.90;999.90;;;7.20;99.90;;;;;;5085050;28;20483;-70
2023/12/27 11:05:56;;;;;;;1999.90;999.90;;;7.10;99.90;;;;;;5072126;28;20514;-67
2023/12/27 11:08:24;;;;;;;1999.90;999.90;;;7.10;99.90;;;;;;5071981;28;20436;-70
2023/12/27 11:10:52;;;;;;;1999.90;999.90;;;7.00;99.90;;;;;;5070290;28;20420;-71
2023/12/27 11:13:24;;;;;;;1999.90;999.90;;;7.00;99.90;;;;;;5073884;28;20961;-68
2023/12/27 11:15:53;;;;;;;1999.90;999.90;;;6.90;99.90;;;;;;5062388;28;20519;-71
2023/12/27 11:18:23;;;;;;;1999.90;999.90;;;6.90;99.90;;;;;;5070212;28;20430;-68
2023/12/27 11:20:51;;;;;;;1999.90;999.90;;;7.00;99.90;;;;;;5075380;28;20426;-71
2023/12/27 11:23:18;;;;;;;1999.90;999.90;;;7.00;99.90;;;;;;5079788;28;20816;-71
2023/12/27 11:25:44;;;;;;;1999.90;999.90;;;7.00;99.90;;;;;;5076735;28;20410;-68
2023/12/27 11:28:11;;;;;;;1999.90;999.90;;;7.00;99.90;;;;;;5070821;28;20440;-70
2023/12/27 11:30:38;;;;;;;1999.90;999.90;;;7.00;99.90;;;;;;5080031;28;20416;-69
2023/12/27 11:33:06;;;;;;;1999.90;999.90;;;7.00;99.90;;;;;;5084344;28;20895;-70
2023/12/27 11:35:34;;;;;;;1999.90;999.90;;;7.30;99.90;;;;;;5080174;28;20771;-70
2023/12/27 11:38:14;;;;;;;1999.90;999.90;;;7.30;99.90;;;;;;5068983;28;20437;-68
2023/12/27 11:40:41;;;;;;;1999.90;999.90;;;7.30;99.90;;;;;;5072543;28;20953;-68
2023/12/27 11:43:08;;;;;;;1999.90;999.90;;;7.50;99.90;;;;;;5075580;28;20414;-71
2023/12/27 11:45:56;;;;;;;1999.90;999.90;;;7.50;99.90;;;;;;5079779;28;20435;-70
2023/12/27 11:48:25;;;;;;;1999.90;999.90;;;7.60;99.90;;;;;;5068133;28;20406;-72
2023/12/27 11:50:52;;;;;;;1999.90;999.90;;;7.80;99.90;;;;;;5075171;28;20435;-72
2023/12/27 11:53:19;;;;;;;1999.90;999.90;;;7.70;99.90;;;;;;5069367;28;20420;-71
2023/12/27 11:55:47;;;;;;;1999.90;999.90;;;7.60;99.90;;;;;;5070012;28;20412;-71
2023/12/27 11:58:14;;;;;;;1999.90;999.90;;;7.70;99.90;;;;;;5070328;28;20461;-69
2023/12/27 12:00:42;;;;;;;1999.90;999.90;;;7.80;99.90;;;;;;5066483;28;20991;-70
2023/12/27 12:03:16;;;;;;;1999.90;999.90;;;7.80;99.90;;;;;;5068682;28;20441;-71
2023/12/27 12:06:09;;;;;;;1999.90;999.90;;;7.60;99.90;;;;;;5071511;28;20411;-71
2023/12/27 12:08:42;;;;;;;1999.90;999.90;;;7.40;99.90;;;;;;5075723;28;20472;-70